createdAt,value
2022-08-26T00:01:13.574Z,86.73
2022-08-26T00:04:16.489Z,86.82
2022-08-26T00:07:18.980Z,86.67
2022-08-26T00:10:21.655Z,86.50
2022-08-26T00:13:28.260Z,86.62
2022-08-26T00:16:31.639Z,87.22
2022-08-26T00:19:34.017Z,87.35
2022-08-26T00:22:37.142Z,87.07
2022-08-26T00:25:42.532Z,87.06
2022-08-26T00:28:45.032Z,87.27
2022-08-26T00:31:47.691Z,87.41
2022-08-26T00:34:50.630Z,87.36
2022-08-26T00:37:53.368Z,87.30
2022-08-26T00:40:57.385Z,87.61
2022-08-26T00:44:00.076Z,87.84
2022-08-26T00:47:07.977Z,87.94
2022-08-26T00:50:13.732Z,87.98
2022-08-26T00:53:24.162Z,88.05
2022-08-26T00:56:47.048Z,87.62
2022-08-26T00:59:55.182Z,87.61
2022-08-26T01:03:00.374Z,87.55
2022-08-26T01:06:03.796Z,87.13
2022-08-26T01:09:06.844Z,87.46
2022-08-26T01:12:09.870Z,86.89
2022-08-26T01:15:19.222Z,86.37
2022-08-26T01:18:22.844Z,86.23
2022-08-26T01:21:45.508Z,86.52
2022-08-26T01:24:49.372Z,86.79
2022-08-26T01:28:00.054Z,87.39
2022-08-26T01:31:05.218Z,87.06
2022-08-26T01:34:37.850Z,86.79
2022-08-26T01:37:41.372Z,87.39
2022-08-26T01:40:44.164Z,88.36
2022-08-26T01:43:50.680Z,88.16
2022-08-26T01:46:54.647Z,87.71
2022-08-26T01:50:01.231Z,87.52
2022-08-26T01:53:09.662Z,87.67
2022-08-26T01:56:15.471Z,87.13
2022-08-26T01:59:20.357Z,85.97
2022-08-26T02:02:23.364Z,85.78
2022-08-26T02:05:26.924Z,86.29
2022-08-26T02:08:44.495Z,86.46
2022-08-26T02:11:47.460Z,86.91
2022-08-26T02:14:53.798Z,87.17
2022-08-26T02:17:56.190Z,87.32
2022-08-26T02:21:00.367Z,87.33
2022-08-26T02:24:15.294Z,87.06
2022-08-26T02:27:21.200Z,87.43
2022-08-26T02:30:32.083Z,87.56
2022-08-26T02:33:34.538Z,88.37
2022-08-26T02:36:38.791Z,88.46
2022-08-26T02:39:42.988Z,88.34
2022-08-26T02:42:45.290Z,88.77
2022-08-26T02:45:47.612Z,89.02
2022-08-26T02:48:50.372Z,89.41
2022-08-26T02:51:52.975Z,89.40
2022-08-26T02:54:55.313Z,89.24
2022-08-26T02:57:58.149Z,89.62
2022-08-26T03:01:01.714Z,89.55
2022-08-26T03:04:11.655Z,90.09
2022-08-26T03:07:14.897Z,90.16
2022-08-26T03:10:18.321Z,91.31
2022-08-26T03:13:20.763Z,90.20
2022-08-26T03:16:23.240Z,90.15
2022-08-26T03:19:26.351Z,90.65
2022-08-26T03:22:28.631Z,90.75
2022-08-26T03:25:30.932Z,90.90
2022-08-26T03:28:33.371Z,91.05
2022-08-26T03:31:37.908Z,90.84
2022-08-26T03:34:40.576Z,90.43
2022-08-26T03:37:43.337Z,91.08
2022-08-26T03:40:46.888Z,90.80
2022-08-26T03:43:51.001Z,90.75
2022-08-26T03:46:54.495Z,91.01
2022-08-26T03:49:57.909Z,92.00
2022-08-26T03:53:00.215Z,92.50
2022-08-26T03:56:03.883Z,91.72
2022-08-26T03:59:07.675Z,91.68
2022-08-26T04:02:11.627Z,91.72
2022-08-26T04:05:16.592Z,91.42
2022-08-26T04:08:20.063Z,91.59
2022-08-26T04:11:34.243Z,91.43
2022-08-26T04:14:40.197Z,91.25
2022-08-26T04:17:42.970Z,92.10
2022-08-26T04:20:47.407Z,91.89
2022-08-26T04:23:50.214Z,92.72
2022-08-26T04:26:53.284Z,92.76
2022-08-26T04:29:55.559Z,91.92
2022-08-26T04:32:58.473Z,90.74
2022-08-26T04:36:02.610Z,91.62
2022-08-26T04:39:06.985Z,91.26
2022-08-26T04:42:09.259Z,90.74
2022-08-26T04:45:11.836Z,90.63
2022-08-26T04:48:16.765Z,90.75
2022-08-26T04:51:21.398Z,91.15
2022-08-26T04:54:25.195Z,91.08
2022-08-26T04:57:27.758Z,90.98
2022-08-26T05:00:30.099Z,90.54
2022-08-26T05:03:32.469Z,90.01
2022-08-26T05:06:37.039Z,89.37
2022-08-26T05:09:40.723Z,89.19
2022-08-26T05:12:43.050Z,89.51
2022-08-26T05:15:47.763Z,89.17
2022-08-26T05:18:52.864Z,89.37
2022-08-26T05:21:55.220Z,89.30
2022-08-26T05:24:57.480Z,88.85
2022-08-26T05:27:59.866Z,88.69
2022-08-26T05:31:10.540Z,88.19
2022-08-26T05:34:13.579Z,88.27
2022-08-26T05:37:17.060Z,87.75
2022-08-26T05:40:20.164Z,87.15
2022-08-26T05:43:23.206Z,87.65
2022-08-26T05:46:27.045Z,87.90
2022-08-26T05:49:29.367Z,86.14
2022-08-26T05:52:33.624Z,88.70
2022-08-26T05:55:42.705Z,84.90
2022-08-26T05:58:45.011Z,84.13
2022-08-26T06:01:48.618Z,84.01
2022-08-26T06:04:51.528Z,82.66
2022-08-26T06:08:14.194Z,83.09
2022-08-26T06:11:19.619Z,82.89
2022-08-26T06:14:23.083Z,82.44
2022-08-26T06:17:25.477Z,81.33
2022-08-26T06:20:31.780Z,81.09
2022-08-26T06:23:52.482Z,79.88
2022-08-26T06:26:57.203Z,79.04
2022-08-26T06:29:59.499Z,78.24
2022-08-26T06:33:02.415Z,76.64
2022-08-26T06:36:07.550Z,75.66
2022-08-26T06:39:12.325Z,74.60
2022-08-26T06:42:14.672Z,73.65
2022-08-26T06:45:17.305Z,72.80
2022-08-26T06:48:21.606Z,71.67
2022-08-26T06:51:30.077Z,71.21
2022-08-26T06:54:32.544Z,70.65
2022-08-26T06:57:37.768Z,69.22
2022-08-26T07:00:47.380Z,68.55
2022-08-26T07:03:55.208Z,69.69
2022-08-26T07:06:59.616Z,66.98
2022-08-26T07:10:02.451Z,65.98
2022-08-26T07:13:07.353Z,64.19
2022-08-26T07:16:13.684Z,62.73
2022-08-26T07:19:28.525Z,62.34
2022-08-26T07:22:33.679Z,61.33
2022-08-26T07:25:43.069Z,59.73
2022-08-26T07:28:48.629Z,59.71
2022-08-26T07:31:50.877Z,57.69
2022-08-26T07:34:53.284Z,57.13
2022-08-26T07:37:57.165Z,55.58
2022-08-26T07:40:59.567Z,55.03
2022-08-26T07:44:02.539Z,55.57
2022-08-26T07:47:10.446Z,55.68
2022-08-26T07:50:49.294Z,54.34
2022-08-26T07:53:52.349Z,54.66
2022-08-26T07:56:55.917Z,53.41
2022-08-26T08:00:01.927Z,52.83
2022-08-26T08:03:15.258Z,52.77
2022-08-26T08:06:22.298Z,52.09
2022-08-26T08:09:24.745Z,51.60
2022-08-26T08:12:27.038Z,50.97
2022-08-26T08:15:33.252Z,50.82
2022-08-26T08:18:37.912Z,50.25
2022-08-26T08:21:46.959Z,50.64
2022-08-26T08:24:52.979Z,49.11
2022-08-26T08:27:55.538Z,48.84
2022-08-26T08:30:59.649Z,48.58
2022-08-26T08:34:01.967Z,48.36
2022-08-26T08:37:10.072Z,48.06
2022-08-26T08:40:18.283Z,48.15
2022-08-26T08:43:44.600Z,48.51
2022-08-26T08:46:55.848Z,49.05
2022-08-26T08:50:12.674Z,48.45
2022-08-26T08:53:37.659Z,48.52
2022-08-26T08:56:53.192Z,47.47
2022-08-26T09:00:09.141Z,47.00
2022-08-26T09:03:28.947Z,46.00
2022-08-26T09:06:31.507Z,46.29
2022-08-26T09:09:40.514Z,46.61
2022-08-26T09:12:43.799Z,45.96
2022-08-26T09:15:54.322Z,44.20
2022-08-26T09:19:03.765Z,43.67
2022-08-26T09:22:08.925Z,42.57
2022-08-26T09:25:14.654Z,42.80
2022-08-26T09:28:19.843Z,42.69
2022-08-26T09:31:34.241Z,43.33
2022-08-26T09:34:52.033Z,43.08
2022-08-26T09:37:54.447Z,42.70
2022-08-26T09:41:01.094Z,43.11
2022-08-26T09:44:18.340Z,44.03
2022-08-26T09:47:30.290Z,43.98
2022-08-26T09:50:41.005Z,44.15
2022-08-26T09:53:55.999Z,42.79
2022-08-26T09:57:17.950Z,42.88
2022-08-26T10:00:41.819Z,42.87
2022-08-26T10:03:45.613Z,43.34
2022-08-26T10:07:05.118Z,41.57
2022-08-26T10:10:18.590Z,40.37
2022-08-26T10:13:37.601Z,40.84
2022-08-26T10:17:20.382Z,39.76
2022-08-26T10:20:27.393Z,39.21
2022-08-26T10:23:33.101Z,39.17
2022-08-26T10:26:59.079Z,37.63
2022-08-26T10:30:12.502Z,36.70
2022-08-26T10:33:15.502Z,36.73
2022-08-26T10:37:05.130Z,35.94
2022-08-26T10:40:16.026Z,35.29
2022-08-26T10:43:25.649Z,34.83
2022-08-26T10:46:37.040Z,33.72
2022-08-26T10:49:46.048Z,33.51
2022-08-26T10:52:54.913Z,33.75
2022-08-26T10:56:25.119Z,34.79
2022-08-26T10:59:36.814Z,37.39
2022-08-26T11:02:48.260Z,38.31
2022-08-26T11:06:16.217Z,36.43
2022-08-26T11:09:47.508Z,33.77
2022-08-26T11:12:58.819Z,33.57
2022-08-26T11:16:01.419Z,32.55
2022-08-26T11:19:05.048Z,33.77
2022-08-26T11:22:28.082Z,33.21
2022-08-26T11:25:31.084Z,33.71
2022-08-26T11:28:49.734Z,35.61
2022-08-26T11:31:55.708Z,37.44
2022-08-26T11:35:00.435Z,35.69
2022-08-26T11:38:27.117Z,33.27
2022-08-26T11:41:31.365Z,32.34
2022-08-26T11:44:40.073Z,32.13
2022-08-26T11:47:42.927Z,31.15
2022-08-26T11:51:11.234Z,31.07
2022-08-26T11:54:16.119Z,29.79
2022-08-26T11:57:18.441Z,28.90
2022-08-26T12:00:48.744Z,30.16
2022-08-26T12:03:52.378Z,30.27
2022-08-26T12:06:55.774Z,30.97
2022-08-26T12:10:03.502Z,30.64
2022-08-26T12:13:07.258Z,29.38
2022-08-26T12:16:09.702Z,30.02
2022-08-26T12:19:26.288Z,31.63
2022-08-26T12:22:41.968Z,30.29
2022-08-26T12:25:52.075Z,29.61
2022-08-26T12:29:01.510Z,29.97
2022-08-26T12:32:17.805Z,30.01
2022-08-26T12:35:21.260Z,29.71
2022-08-26T12:38:26.918Z,28.57
2022-08-26T12:42:04.346Z,27.68
2022-08-26T12:45:07.643Z,28.52
2022-08-26T12:48:13.617Z,29.56
2022-08-26T12:51:24.456Z,27.82
2022-08-26T12:54:46.925Z,29.46
2022-08-26T12:57:49.320Z,30.46
2022-08-26T13:00:56.142Z,29.69
2022-08-26T13:03:58.556Z,29.88
2022-08-26T13:07:18.658Z,28.76
2022-08-26T13:10:36.197Z,30.18
2022-08-26T13:13:39.085Z,30.10
2022-08-26T13:16:41.693Z,30.48
2022-08-26T13:19:44.106Z,29.33
2022-08-26T13:22:46.509Z,29.69
2022-08-26T13:25:56.228Z,30.45
2022-08-26T13:29:01.731Z,29.94
2022-08-26T13:32:06.571Z,30.17
2022-08-26T13:35:09.012Z,30.71
2022-08-26T13:38:22.383Z,30.03
2022-08-26T13:41:36.712Z,30.10
2022-08-26T13:44:39.141Z,30.70
2022-08-26T13:47:41.412Z,29.64
2022-08-26T13:50:43.700Z,29.58
2022-08-26T13:53:46.256Z,30.83
2022-08-26T13:56:48.548Z,30.65
2022-08-26T13:59:53.920Z,30.08
2022-08-26T14:02:56.213Z,30.58
2022-08-26T14:05:58.495Z,31.31
2022-08-26T14:09:00.837Z,30.34
2022-08-26T14:12:03.370Z,30.45
2022-08-26T14:15:06.841Z,30.18
2022-08-26T14:18:10.952Z,30.93
2022-08-26T14:21:14.493Z,32.04
2022-08-26T14:24:16.759Z,30.68
2022-08-26T14:27:19.017Z,31.21
2022-08-26T14:30:29.196Z,32.24
2022-08-26T14:33:33.948Z,32.33
2022-08-26T14:36:39.650Z,32.59
2022-08-26T14:39:42.001Z,31.54
2022-08-26T14:42:49.677Z,32.27
2022-08-26T14:45:56.137Z,34.51
2022-08-26T14:49:01.734Z,33.30
2022-08-26T14:52:05.013Z,32.43
2022-08-26T14:55:07.681Z,32.81
2022-08-26T14:58:10.261Z,32.74
2022-08-26T15:01:13.082Z,32.89
2022-08-26T15:04:15.497Z,34.07
2022-08-26T15:07:18.201Z,34.51
2022-08-26T15:10:20.709Z,34.26
2022-08-26T15:13:23.748Z,34.80
2022-08-26T15:16:27.555Z,36.48
2022-08-26T15:19:29.956Z,35.09
2022-08-26T15:22:32.246Z,36.49
2022-08-26T15:25:34.656Z,35.88
2022-08-26T15:28:38.432Z,36.96
2022-08-26T15:31:40.905Z,37.90
2022-08-26T15:34:43.280Z,37.06
2022-08-26T15:37:45.634Z,38.00
2022-08-26T15:40:48.026Z,37.70
2022-08-26T15:43:50.615Z,37.75
2022-08-26T15:46:58.485Z,39.84
2022-08-26T15:50:01.226Z,39.43
2022-08-26T15:53:05.208Z,40.95
2022-08-26T15:56:07.479Z,42.09
2022-08-26T15:59:11.357Z,40.22
2022-08-26T16:02:13.738Z,40.26
2022-08-26T16:05:16.443Z,40.64
2022-08-26T16:08:18.994Z,40.50
2022-08-26T16:11:21.384Z,40.29
2022-08-26T16:14:24.183Z,40.55
2022-08-26T16:17:26.439Z,41.09
2022-08-26T16:20:29.795Z,42.02
2022-08-26T16:23:32.045Z,41.62
2022-08-26T16:26:36.765Z,42.28
2022-08-26T16:29:40.904Z,43.21
2022-08-26T16:32:45.524Z,43.11
2022-08-26T16:35:48.060Z,43.77
2022-08-26T16:38:55.203Z,43.33
2022-08-26T16:41:57.628Z,44.11
2022-08-26T16:44:59.971Z,44.28
2022-08-26T16:48:02.429Z,44.83
2022-08-26T16:51:04.686Z,46.11
2022-08-26T16:54:08.069Z,46.29
2022-08-26T16:57:12.194Z,47.80
2022-08-26T17:00:20.685Z,48.12
2022-08-26T17:03:23.020Z,48.54
2022-08-26T17:06:25.316Z,52.05
2022-08-26T17:09:27.669Z,52.29
2022-08-26T17:12:33.830Z,51.24
2022-08-26T17:15:36.132Z,50.97
2022-08-26T17:18:38.773Z,54.23
2022-08-26T17:21:41.244Z,54.77
2022-08-26T17:24:43.577Z,55.04
2022-08-26T17:27:48.849Z,57.95
2022-08-26T17:30:51.177Z,58.34
2022-08-26T17:33:55.459Z,57.10
2022-08-26T17:36:57.788Z,57.44
2022-08-26T17:40:00.205Z,58.96
2022-08-26T17:43:03.031Z,59.09
2022-08-26T17:46:08.064Z,59.88
2022-08-26T17:49:10.388Z,61.70
2022-08-26T17:52:12.659Z,62.92
2022-08-26T17:55:16.887Z,63.25
2022-08-26T17:58:23.247Z,61.94
2022-08-26T18:01:27.772Z,64.10
2022-08-26T18:04:30.256Z,65.38
2022-08-26T18:07:33.520Z,65.80
2022-08-26T18:10:44.745Z,64.96
2022-08-26T18:13:47.766Z,65.53
2022-08-26T18:16:51.085Z,66.08
2022-08-26T18:19:53.628Z,67.01
2022-08-26T18:22:55.901Z,67.82
2022-08-26T18:25:58.172Z,69.56
2022-08-26T18:29:00.835Z,70.24
2022-08-26T18:32:03.452Z,71.27
2022-08-26T18:35:06.095Z,72.32
2022-08-26T18:38:11.091Z,72.44
2022-08-26T18:41:14.455Z,73.80
2022-08-26T18:44:18.667Z,73.75
2022-08-26T18:47:21.053Z,74.75
2022-08-26T18:50:23.648Z,75.11
2022-08-26T18:53:27.488Z,75.36
2022-08-26T18:56:30.101Z,76.52
2022-08-26T18:59:32.731Z,76.32
2022-08-26T19:02:35.081Z,76.31
2022-08-26T19:05:40.217Z,76.98
2022-08-26T19:08:44.769Z,77.63
2022-08-26T19:11:47.241Z,77.65
2022-08-26T19:14:51.993Z,77.45
2022-08-26T19:17:54.279Z,77.26
2022-08-26T19:20:56.915Z,76.45
2022-08-26T19:24:01.734Z,75.35
2022-08-26T19:27:04.506Z,74.80
2022-08-26T19:30:07.585Z,75.85
2022-08-26T19:33:10.473Z,75.69
2022-08-26T19:36:25.424Z,77.69
2022-08-26T19:39:27.799Z,78.10
2022-08-26T19:42:30.097Z,77.73
2022-08-26T19:45:33.024Z,78.42
2022-08-26T19:48:35.317Z,78.41
2022-08-26T19:51:37.736Z,79.47
2022-08-26T19:54:40.563Z,79.72
2022-08-26T19:57:43.683Z,80.26
2022-08-26T20:00:45.992Z,80.89
2022-08-26T20:03:48.342Z,81.75
2022-08-26T20:06:50.778Z,81.66
2022-08-26T20:09:56.093Z,82.48
2022-08-26T20:12:58.520Z,82.55
2022-08-26T20:16:00.819Z,83.33
2022-08-26T20:19:21.895Z,82.73
2022-08-26T20:22:24.760Z,82.69
2022-08-26T20:25:27.084Z,82.79
2022-08-26T20:28:29.677Z,83.24
2022-08-26T20:31:32.095Z,84.11
2022-08-26T20:34:36.155Z,85.01
2022-08-26T20:37:38.596Z,84.69
2022-08-26T20:40:42.209Z,83.77
2022-08-26T20:43:44.887Z,84.22
2022-08-26T20:46:47.382Z,85.47
2022-08-26T20:49:52.383Z,85.94
2022-08-26T20:52:54.935Z,84.75
2022-08-26T20:56:02.434Z,85.40
2022-08-26T20:59:11.600Z,85.30
2022-08-26T21:02:13.899Z,84.65
2022-08-26T21:05:17.234Z,84.62
2022-08-26T21:08:19.603Z,84.19
2022-08-26T21:11:22.367Z,83.91
2022-08-26T21:14:25.972Z,84.60
2022-08-26T21:17:29.282Z,84.54
2022-08-26T21:20:32.702Z,85.20
2022-08-26T21:23:36.233Z,85.13
2022-08-26T21:26:38.701Z,84.82
2022-08-26T21:29:40.961Z,84.98
2022-08-26T21:32:43.292Z,85.56
2022-08-26T21:35:54.965Z,85.47
2022-08-26T21:38:58.876Z,84.18
2022-08-26T21:42:01.148Z,83.48
2022-08-26T21:45:04.539Z,84.24
2022-08-26T21:48:07.799Z,84.29
2022-08-26T21:51:12.502Z,83.59
2022-08-26T21:54:15.897Z,83.23
2022-08-26T21:57:19.036Z,83.60
2022-08-26T22:00:21.439Z,83.87
2022-08-26T22:03:23.733Z,83.05
2022-08-26T22:06:27.713Z,84.41
2022-08-26T22:09:31.675Z,85.91
2022-08-26T22:12:34.023Z,85.98
2022-08-26T22:15:38.577Z,85.25
2022-08-26T22:18:45.654Z,86.29
2022-08-26T22:21:52.972Z,85.86
2022-08-26T22:24:55.252Z,85.54
2022-08-26T22:27:57.540Z,85.78
2022-08-26T22:31:00.517Z,85.65
2022-08-26T22:34:04.191Z,85.40
2022-08-26T22:37:06.516Z,85.13
2022-08-26T22:40:09.749Z,85.52
2022-08-26T22:43:12.931Z,85.78
2022-08-26T22:46:34.865Z,85.48
2022-08-26T22:49:37.248Z,85.73
2022-08-26T22:52:39.540Z,85.70
2022-08-26T22:55:43.407Z,85.32
2022-08-26T22:58:45.778Z,85.36
2022-08-26T23:01:48.112Z,85.87
2022-08-26T23:04:51.215Z,85.69
2022-08-26T23:07:54.038Z,85.61
2022-08-26T23:11:02.998Z,85.59
2022-08-26T23:14:06.488Z,85.79
2022-08-26T23:17:10.770Z,85.86
2022-08-26T23:20:14.789Z,86.33
2022-08-26T23:23:18.131Z,87.19
2022-08-26T23:26:20.419Z,87.84
2022-08-26T23:29:22.685Z,88.25
2022-08-26T23:32:24.953Z,87.13
2022-08-26T23:35:28.731Z,88.12
2022-08-26T23:38:31.346Z,87.82
2022-08-26T23:41:35.712Z,87.79
2022-08-26T23:44:38.823Z,88.55
2022-08-26T23:47:41.443Z,89.05
2022-08-26T23:51:02.133Z,88.22
2022-08-26T23:54:04.500Z,88.60
2022-08-26T23:57:08.846Z,87.98
